Time;durP1;ratioP1;P1;durP2;ratioP2;P2;SDS_P1;SDS_P2;PMS_P1;PMS_P2;Temp;Humidity;BMP_temperature;BMP_pressure;BME280_temperature;BME280_humidity;BME280_pressure;Samples;Min_cycle;Max_cycle;Signal;HPM_P1;HPM_P2
2023/08/17 00:01:32;;;;;;;0.35;0.30;;;24.30;66.00;;;;;;6195886;28;20034;-57
2023/08/17 00:04:34;;;;;;;0.30;0.20;;;24.40;66.00;;;;;;6195472;28;20100;-57
2023/08/17 00:07:36;;;;;;;0.20;0.20;;;24.30;66.50;;;;;;6194952;28;20053;-58
2023/08/17 00:10:38;;;;;;;0.40;0.20;;;24.40;66.50;;;;;;6193401;28;20088;-57
2023/08/17 00:13:40;;;;;;;0.20;0.20;;;24.30;66.10;;;;;;6192880;28;20038;-57
2023/08/17 00:16:41;;;;;;;0.30;0.30;;;24.00;66.10;;;;;;6187085;28;20041;-57
2023/08/17 00:19:43;;;;;;;0.32;0.20;;;24.30;66.00;;;;;;6193830;28;20073;-57
2023/08/17 00:22:45;;;;;;;0.40;0.32;;;24.30;66.10;;;;;;6193759;28;20125;-58
2023/08/17 00:25:48;;;;;;;0.50;0.32;;;24.50;66.20;;;;;;6195969;28;20046;-57
2023/08/17 00:28:49;;;;;;;0.35;0.35;;;24.40;66.50;;;;;;6182619;28;20525;-57
2023/08/17 00:31:52;;;;;;;0.38;0.38;;;24.30;66.30;;;;;;6194329;28;20042;-60
2023/08/17 00:34:55;;;;;;;0.20;0.20;;;23.90;66.20;;;;;;6198734;28;20124;-60
2023/08/17 00:37:59;;;;;;;0.20;0.20;;;23.30;66.90;;;;;;6189941;28;20050;-60
2023/08/17 00:41:04;;;;;;;0.30;0.30;;;23.50;65.70;;;;;;6161492;28;20050;-60
2023/08/17 00:44:06;;;;;;;0.38;0.30;;;22.80;65.60;;;;;;6196217;28;20073;-60
2023/08/17 00:47:07;;;;;;;0.50;0.30;;;23.60;66.20;;;;;;6196431;28;20034;-60
2023/08/17 00:50:11;;;;;;;0.30;0.20;;;25.50;67.10;;;;;;6196847;28;20044;-60
2023/08/17 00:53:13;;;;;;;0.35;0.30;;;24.20;66.70;;;;;;6196748;28;20069;-60
2023/08/17 00:56:15;;;;;;;0.30;0.20;;;24.20;65.80;;;;;;6194334;28;20499;-60
2023/08/17 00:59:16;;;;;;;0.30;0.30;;;23.70;66.60;;;;;;6188215;28;20045;-60
2023/08/17 01:02:19;;;;;;;0.30;0.30;;;22.90;65.40;;;;;;6195810;28;20041;-60
2023/08/17 01:05:22;;;;;;;0.63;0.32;;;24.10;66.20;;;;;;6186125;28;20046;-60
2023/08/17 01:08:27;;;;;;;0.30;0.30;;;23.40;65.60;;;;;;6197246;28;20042;-57
2023/08/17 01:11:36;;;;;;;0.68;0.40;;;23.70;65.90;;;;;;6194897;28;20046;-57
2023/08/17 01:14:48;;;;;;;0.40;0.30;;;23.90;66.50;;;;;;6181034;28;20049;-57
2023/08/17 01:17:54;;;;;;;;;;;24.00;66.60;;;;;;6196266;28;20654;-57
2023/08/17 01:20:57;;;;;;;0.35;0.32;;;24.20;66.50;;;;;;6197477;28;20404;-57
2023/08/17 01:23:59;;;;;;;0.25;0.20;;;23.70;66.10;;;;;;6194279;28;20097;-56
2023/08/17 01:27:02;;;;;;;0.30;0.30;;;24.20;66.50;;;;;;6198068;28;20492;-56
2023/08/17 01:30:05;;;;;;;0.38;0.25;;;24.50;66.90;;;;;;6196813;28;20538;-56
2023/08/17 01:33:08;;;;;;;0.60;0.30;;;23.70;66.10;;;;;;6194253;28;20044;-56
2023/08/17 01:36:18;;;;;;;0.85;0.40;;;24.00;66.30;;;;;;6192862;28;20239;-57
2023/08/17 01:39:26;;;;;;;0.20;0.20;;;24.20;66.30;;;;;;6192719;28;20472;-57
2023/08/17 01:42:29;;;;;;;0.30;0.20;;;23.80;66.10;;;;;;6193022;28;20041;-56
2023/08/17 01:45:30;;;;;;;0.20;0.20;;;24.50;66.80;;;;;;6192947;28;20042;-57
2023/08/17 01:48:32;;;;;;;0.38;0.30;;;24.00;66.40;;;;;;6193532;28;20229;-56
2023/08/17 01:51:33;;;;;;;0.20;0.20;;;23.70;66.00;;;;;;6193783;28;20034;-55
2023/08/17 01:54:36;;;;;;;0.20;0.20;;;24.10;66.40;;;;;;6194309;28;20049;-54
2023/08/17 01:57:37;;;;;;;0.52;0.35;;;24.00;66.20;;;;;;6195405;28;20038;-56
2023/08/17 02:00:39;;;;;;;0.30;0.20;;;24.00;66.80;;;;;;6193443;28;20269;-56
2023/08/17 02:03:42;;;;;;;0.30;0.30;;;24.00;66.20;;;;;;6195747;28;20084;-56
2023/08/17 02:06:48;;;;;;;0.30;0.30;;;24.30;66.90;;;;;;6193156;28;20228;-56
2023/08/17 02:09:50;;;;;;;0.20;0.20;;;23.80;64.90;;;;;;6194608;28;20452;-56
2023/08/17 02:12:52;;;;;;;0.32;0.30;;;24.20;66.40;;;;;;6193327;28;20485;-56
2023/08/17 02:16:03;;;;;;;0.20;0.20;;;24.00;66.00;;;;;;6194678;28;20108;-56
2023/08/17 02:19:05;;;;;;;0.38;0.20;;;23.30;65.90;;;;;;6193450;28;20030;-54
2023/08/17 02:22:07;;;;;;;0.30;0.15;;;23.70;66.10;;;;;;6192096;28;20065;-55
2023/08/17 02:25:09;;;;;;;0.30;0.20;;;23.90;66.10;;;;;;6193805;28;20042;-56
2023/08/17 02:28:11;;;;;;;0.20;0.20;;;23.30;66.20;;;;;;6193277;28;20324;-56
2023/08/17 02:31:12;;;;;;;0.32;0.25;;;23.70;66.10;;;;;;6185802;28;20037;-56
2023/08/17 02:34:14;;;;;;;0.20;0.20;;;22.20;65.30;;;;;;6193187;28;20038;-57
2023/08/17 02:37:15;;;;;;;0.10;0.10;;;24.50;66.70;;;;;;6189727;28;20056;-56
2023/08/17 02:40:18;;;;;;;0.40;0.20;;;24.00;66.70;;;;;;6193084;28;20045;-56
2023/08/17 02:43:19;;;;;;;0.15;0.15;;;24.00;66.20;;;;;;6191726;28;20121;-56
2023/08/17 02:46:21;;;;;;;0.20;0.20;;;23.80;65.90;;;;;;6193690;28;20410;-56
2023/08/17 02:49:25;;;;;;;0.20;0.20;;;23.90;66.10;;;;;;6189952;28;20052;-56
2023/08/17 02:52:27;;;;;;;0.22;0.20;;;23.60;66.00;;;;;;6193038;28;20041;-56
2023/08/17 02:55:29;;;;;;;0.30;0.30;;;24.10;66.60;;;;;;6190357;28;20042;-56
2023/08/17 02:58:30;;;;;;;0.20;0.20;;;23.50;66.50;;;;;;6192369;28;20065;-55
2023/08/17 03:01:35;;;;;;;0.30;0.30;;;23.50;65.90;;;;;;6193958;28;20069;-56
2023/08/17 03:04:37;;;;;;;0.50;0.22;;;23.60;66.10;;;;;;6188107;28;20540;-56
2023/08/17 03:07:38;;;;;;;0.20;0.20;;;23.60;66.00;;;;;;6191587;28;20037;-56
2023/08/17 03:10:40;;;;;;;0.20;0.20;;;24.00;66.10;;;;;;6193114;28;20690;-56
2023/08/17 03:13:42;;;;;;;0.20;0.20;;;23.80;65.90;;;;;;6193329;28;20049;-56
2023/08/17 03:16:43;;;;;;;0.20;0.20;;;23.70;65.90;;;;;;6187794;28;20045;-56
2023/08/17 03:19:45;;;;;;;0.30;0.30;;;23.50;65.80;;;;;;6192328;28;20080;-56
2023/08/17 03:22:46;;;;;;;0.30;0.30;;;23.90;66.30;;;;;;6193433;28;20042;-54
2023/08/17 03:25:52;;;;;;;0.30;0.30;;;24.20;66.60;;;;;;6192344;28;20121;-54
2023/08/17 03:28:57;;;;;;;0.30;0.30;;;24.10;65.90;;;;;;6194202;28;20065;-56
2023/08/17 03:31:58;;;;;;;0.20;0.20;;;24.00;66.00;;;;;;6194516;28;20129;-54
2023/08/17 03:35:00;;;;;;;0.22;0.20;;;24.30;66.40;;;;;;6194017;28;20452;-54
2023/08/17 03:38:02;;;;;;;0.40;0.30;;;23.80;66.10;;;;;;6194021;28;20053;-56
2023/08/17 03:41:05;;;;;;;0.20;0.20;;;23.60;65.90;;;;;;6193722;28;20034;-56
2023/08/17 03:44:07;;;;;;;0.20;0.20;;;23.50;65.70;;;;;;6194268;28;20038;-56
2023/08/17 03:47:09;;;;;;;0.28;0.25;;;23.80;65.90;;;;;;6194645;28;20089;-56
2023/08/17 03:50:10;;;;;;;0.50;0.30;;;23.90;66.00;;;;;;6191658;28;20092;-56
2023/08/17 03:53:12;;;;;;;0.28;0.20;;;23.30;66.20;;;;;;6193157;28;20034;-54
2023/08/17 03:56:14;;;;;;;0.28;0.20;;;23.30;65.90;;;;;;6193690;28;20034;-57
2023/08/17 03:59:16;;;;;;;0.40;0.30;;;23.50;65.70;;;;;;6192934;28;20501;-56
2023/08/17 04:02:18;;;;;;;0.63;0.20;;;23.50;66.30;;;;;;6185866;28;20500;-54
2023/08/17 04:05:19;;;;;;;0.15;0.15;;;23.30;65.50;;;;;;6195768;28;20042;-55
2023/08/17 04:08:22;;;;;;;0.20;0.20;;;24.00;66.60;;;;;;6196904;28;20037;-56
2023/08/17 04:11:24;;;;;;;0.20;0.20;;;23.10;65.30;;;;;;6196563;28;20061;-54
2023/08/17 04:14:28;;;;;;;0.20;0.20;;;22.80;65.80;;;;;;6196846;28;20195;-55
2023/08/17 04:17:30;;;;;;;0.20;0.20;;;23.00;65.70;;;;;;6195379;28;20521;-54
2023/08/17 04:20:32;;;;;;;0.30;0.30;;;23.90;66.40;;;;;;6196704;28;20413;-54
2023/08/17 04:23:34;;;;;;;0.35;0.20;;;23.70;65.90;;;;;;6195334;28;20354;-54
2023/08/17 04:26:36;;;;;;;0.20;0.20;;;23.60;65.90;;;;;;6196082;28;20740;-56
2023/08/17 04:29:38;;;;;;;0.20;0.20;;;23.20;65.50;;;;;;6197608;28;20401;-55
2023/08/17 04:32:40;;;;;;;0.30;0.30;;;23.90;65.90;;;;;;6197264;28;20065;-56
2023/08/17 04:35:41;;;;;;;0.30;0.30;;;23.80;65.90;;;;;;6196287;28;20471;-54
2023/08/17 04:38:43;;;;;;;0.25;0.20;;;24.60;66.90;;;;;;6194579;28;20339;-57
2023/08/17 04:41:46;;;;;;;0.20;0.20;;;23.20;65.60;;;;;;6198040;28;20058;-57
2023/08/17 04:44:51;;;;;;;0.20;0.20;;;23.30;65.80;;;;;;6199476;28;20038;-54
2023/08/17 04:47:53;;;;;;;0.20;0.20;;;24.00;66.10;;;;;;6196364;28;20034;-56
2023/08/17 04:50:56;;;;;;;0.30;0.10;;;23.10;65.70;;;;;;6197605;28;20145;-56
2023/08/17 04:53:59;;;;;;;0.25;0.20;;;23.90;66.30;;;;;;6197340;28;20113;-55
2023/08/17 04:57:05;;;;;;;0.20;0.20;;;24.00;65.90;;;;;;6197480;28;20521;-55
2023/08/17 05:00:09;;;;;;;0.28;0.20;;;23.20;65.80;;;;;;6195413;28;20088;-56
2023/08/17 05:03:11;;;;;;;0.30;0.30;;;23.20;65.30;;;;;;6186531;28;20200;-56
2023/08/17 05:06:28;;;;;;;0.40;0.30;;;23.50;65.90;;;;;;6179477;28;20104;-56
2023/08/17 05:09:30;;;;;;;1.00;0.68;;;23.20;65.30;;;;;;6178318;28;20350;-56
2023/08/17 05:12:34;;;;;;;1.17;0.52;;;23.30;65.70;;;;;;6184943;28;20535;-56
2023/08/17 05:15:36;;;;;;;1.17;0.50;;;22.80;65.70;;;;;;6180385;28;20489;-57
2023/08/17 05:18:41;;;;;;;2.22;0.70;;;23.60;65.90;;;;;;6184959;28;20045;-56
2023/08/17 05:21:45;;;;;;;1.83;0.90;;;24.90;67.50;;;;;;6181387;28;20030;-56
2023/08/17 05:24:46;;;;;;;1.38;0.60;;;23.50;66.70;;;;;;6184499;28;20041;-56
2023/08/17 05:27:49;;;;;;;3.15;0.70;;;23.20;66.50;;;;;;6185910;28;20069;-56
2023/08/17 05:30:53;;;;;;;1.23;0.90;;;23.80;66.50;;;;;;6184880;28;20348;-56
2023/08/17 05:33:55;;;;;;;1.90;0.80;;;22.70;66.80;;;;;;6182627;28;20034;-55
2023/08/17 05:36:59;;;;;;;3.10;0.80;;;24.40;67.40;;;;;;6184648;28;20165;-54
2023/08/17 05:40:01;;;;;;;2.08;0.90;;;24.10;67.40;;;;;;6184782;28;20037;-55
2023/08/17 05:43:04;;;;;;;2.13;0.75;;;23.30;66.70;;;;;;6183851;28;20034;-55
2023/08/17 05:46:05;;;;;;;2.22;1.05;;;22.60;66.70;;;;;;6178800;28;20176;-55
2023/08/17 05:49:07;;;;;;;1.52;0.80;;;23.10;66.90;;;;;;6188111;28;20046;-56
2023/08/17 05:52:09;;;;;;;1.67;1.10;;;23.80;67.70;;;;;;6179857;28;20104;-56
2023/08/17 05:55:11;;;;;;;2.20;1.00;;;22.60;66.50;;;;;;6182656;28;20042;-55
2023/08/17 05:58:13;;;;;;;2.95;1.00;;;23.20;67.80;;;;;;6187177;28;20091;-56
2023/08/17 06:01:14;;;;;;;1.40;0.80;;;23.00;67.10;;;;;;6185174;28;20473;-54
2023/08/17 06:04:16;;;;;;;2.63;0.90;;;23.30;67.40;;;;;;6183652;28;20338;-56
2023/08/17 06:07:18;;;;;;;1.38;0.80;;;23.50;67.50;;;;;;6187119;28;20405;-56
2023/08/17 06:10:20;;;;;;;1.00;0.70;;;23.40;67.90;;;;;;6185127;28;20034;-54
2023/08/17 06:13:25;;;;;;;1.50;0.85;;;22.60;67.30;;;;;;6194614;28;20468;-57
2023/08/17 06:16:27;;;;;;;2.90;0.80;;;25.20;68.90;;;;;;6193876;28;20068;-55
2023/08/17 06:19:29;;;;;;;2.20;0.90;;;23.30;68.00;;;;;;6195499;28;20034;-54
2023/08/17 06:22:30;;;;;;;1.85;1.10;;;23.20;68.20;;;;;;6194530;28;20049;-57
2023/08/17 06:25:32;;;;;;;1.25;0.73;;;22.90;67.90;;;;;;6186862;28;20523;-57
2023/08/17 06:28:34;;;;;;;1.08;0.88;;;22.70;67.80;;;;;;6175716;28;20038;-55
2023/08/17 06:31:35;;;;;;;2.75;0.75;;;23.30;68.00;;;;;;6192752;28;20581;-56
2023/08/17 06:34:37;;;;;;;0.60;0.50;;;23.10;67.80;;;;;;6171646;28;20044;-57
2023/08/17 06:37:39;;;;;;;0.90;0.90;;;23.00;67.40;;;;;;6181532;28;20034;-57
2023/08/17 06:40:41;;;;;;;0.80;0.60;;;22.70;67.60;;;;;;6190851;28;20046;-56
2023/08/17 06:43:44;;;;;;;0.60;0.45;;;23.00;67.40;;;;;;6182681;28;20042;-56
2023/08/17 06:46:46;;;;;;;0.57;0.55;;;22.20;67.00;;;;;;6191874;28;20042;-54
2023/08/17 06:49:48;;;;;;;0.25;0.20;;;22.10;67.00;;;;;;6171351;28;20037;-57
2023/08/17 06:52:49;;;;;;;0.50;0.50;;;23.40;67.70;;;;;;6169494;28;20348;-57
2023/08/17 06:55:51;;;;;;;0.77;0.43;;;23.00;67.40;;;;;;6180788;28;20046;-57
2023/08/17 06:58:58;;;;;;;0.50;0.40;;;22.80;67.10;;;;;;6178229;28;20044;-56
2023/08/17 07:02:00;;;;;;;0.55;0.50;;;23.00;67.30;;;;;;6167017;28;20064;-56
2023/08/17 07:05:01;;;;;;;0.30;0.30;;;23.00;67.30;;;;;;6169182;28;20034;-57
2023/08/17 07:08:03;;;;;;;0.40;0.30;;;23.40;67.20;;;;;;6163960;28;20727;-58
2023/08/17 07:11:08;;;;;;;0.60;0.40;;;23.50;67.50;;;;;;6173143;28;20100;-57
2023/08/17 07:14:10;;;;;;;0.70;0.45;;;23.70;67.90;;;;;;6168124;28;20112;-60
2023/08/17 07:17:12;;;;;;;0.70;0.40;;;23.60;68.70;;;;;;6161391;28;20041;-58
2023/08/17 07:20:13;;;;;;;0.30;0.30;;;23.70;68.00;;;;;;6156320;28;20040;-56
2023/08/17 07:23:18;;;;;;;0.50;0.47;;;23.90;68.40;;;;;;6167275;28;20117;-57
2023/08/17 07:26:21;;;;;;;0.90;0.50;;;23.80;68.20;;;;;;6168104;28;20045;-58
2023/08/17 07:29:23;;;;;;;1.15;0.60;;;23.90;68.60;;;;;;6173023;28;20054;-58
2023/08/17 07:32:26;;;;;;;0.30;0.30;;;24.00;68.30;;;;;;6167017;28;20041;-58
2023/08/17 07:35:27;;;;;;;0.85;0.50;;;23.60;68.30;;;;;;6179633;28;20115;-51
2023/08/17 07:38:34;;;;;;;1.75;0.63;;;23.70;68.20;;;;;;6181246;28;20720;-53
2023/08/17 07:41:36;;;;;;;1.20;0.70;;;23.80;68.40;;;;;;6182202;28;20148;-54
2023/08/17 07:44:39;;;;;;;0.80;0.52;;;24.10;68.60;;;;;;6188233;28;20635;-51
2023/08/17 07:47:41;;;;;;;0.98;0.70;;;23.70;68.20;;;;;;6179759;28;20038;-53
2023/08/17 07:50:42;;;;;;;0.95;0.68;;;23.80;68.70;;;;;;6173936;28;20042;-56
2023/08/17 07:53:44;;;;;;;0.75;0.60;;;24.10;69.10;;;;;;6164365;28;20065;-58
2023/08/17 07:56:45;;;;;;;1.02;0.50;;;24.30;68.70;;;;;;6178270;28;20042;-58
2023/08/17 07:59:47;;;;;;;2.20;0.70;;;23.80;68.50;;;;;;6173654;28;20049;-58
2023/08/17 08:02:50;;;;;;;1.08;0.80;;;24.00;68.70;;;;;;6174760;28;20053;-57
2023/08/17 08:05:52;;;;;;;1.10;1.00;;;23.90;68.70;;;;;;6166875;28;20044;-59
2023/08/17 08:08:54;;;;;;;1.45;1.00;;;23.90;69.10;;;;;;6168101;28;20612;-59
2023/08/17 08:11:59;;;;;;;1.35;1.00;;;24.00;69.10;;;;;;6178340;28;20034;-58
2023/08/17 08:15:02;;;;;;;1.42;1.05;;;24.00;69.30;;;;;;6175996;28;20060;-57
2023/08/17 08:18:05;;;;;;;1.75;1.05;;;24.10;69.10;;;;;;6170819;28;20104;-55
2023/08/17 08:21:07;;;;;;;1.58;1.00;;;24.20;68.70;;;;;;6156552;28;20046;-57
2023/08/17 08:24:08;;;;;;;1.10;0.93;;;24.40;69.30;;;;;;6166507;28;20038;-58
2023/08/17 08:27:19;;;;;;;1.58;1.10;;;24.00;69.10;;;;;;6180646;28;20045;-58
2023/08/17 08:30:21;;;;;;;2.95;1.20;;;24.60;69.70;;;;;;6174010;28;20434;-58
2023/08/17 08:33:25;;;;;;;1.50;1.10;;;24.40;69.60;;;;;;6183838;28;20644;-59
2023/08/17 08:36:28;;;;;;;1.17;1.08;;;24.20;69.80;;;;;;6164085;28;20050;-58
2023/08/17 08:39:32;;;;;;;1.60;1.15;;;24.30;70.00;;;;;;6171026;28;20042;-58
2023/08/17 08:42:34;;;;;;;1.85;1.30;;;24.40;69.90;;;;;;6181438;28;20043;-59
2023/08/17 08:45:37;;;;;;;1.42;1.10;;;24.30;70.00;;;;;;6179742;28;20062;-58
2023/08/17 08:48:41;;;;;;;1.65;1.50;;;24.30;69.90;;;;;;6174848;28;20037;-58
2023/08/17 08:51:46;;;;;;;1.70;1.30;;;24.40;70.20;;;;;;6183765;28;20076;-58
2023/08/17 08:54:50;;;;;;;1.40;1.30;;;24.60;70.40;;;;;;6162101;28;20113;-60
2023/08/17 08:57:53;;;;;;;1.75;1.17;;;24.70;70.60;;;;;;6182184;28;20045;-59
2023/08/17 09:00:58;;;;;;;2.38;1.42;;;24.30;70.50;;;;;;6180532;28;20069;-59
2023/08/17 09:04:00;;;;;;;2.55;1.52;;;24.30;70.50;;;;;;6178580;28;20041;-59
2023/08/17 09:07:02;;;;;;;3.38;1.50;;;24.20;71.30;;;;;;6181966;28;20119;-58
2023/08/17 09:10:04;;;;;;;1.40;1.30;;;24.20;71.00;;;;;;6187171;28;20061;-58
2023/08/17 09:13:05;;;;;;;2.42;1.50;;;24.50;71.50;;;;;;6178303;28;20045;-58
2023/08/17 09:16:08;;;;;;;2.22;1.58;;;24.30;71.70;;;;;;6178393;28;20066;-59
2023/08/17 09:19:10;;;;;;;1.65;1.55;;;24.70;72.10;;;;;;6165986;28;20034;-57
2023/08/17 09:22:14;;;;;;;2.25;1.40;;;24.60;72.20;;;;;;6180931;28;20042;-58
2023/08/17 09:25:23;;;;;;;2.10;1.70;;;24.60;73.10;;;;;;6183805;28;20053;-58
2023/08/17 09:28:24;;;;;;;2.58;1.80;;;24.30;72.60;;;;;;6182609;28;20049;-59
2023/08/17 09:31:34;;;;;;;2.17;1.85;;;24.70;74.00;;;;;;6171431;28;20089;-58
2023/08/17 09:34:35;;;;;;;2.80;1.85;;;25.20;71.60;;;;;;6187781;28;20034;-59
2023/08/17 09:37:37;;;;;;;2.28;2.00;;;24.70;73.40;;;;;;6177651;28;20046;-59
2023/08/17 09:40:38;;;;;;;3.63;1.98;;;24.40;73.20;;;;;;6191886;28;20648;-59
2023/08/17 09:43:43;;;;;;;3.45;1.90;;;24.90;73.80;;;;;;6180579;28;20030;-59
2023/08/17 09:46:46;;;;;;;2.35;1.73;;;24.50;72.40;;;;;;6181270;28;20046;-59
2023/08/17 09:49:51;;;;;;;2.00;1.80;;;24.60;73.40;;;;;;6185720;28;20042;-58
2023/08/17 09:52:54;;;;;;;2.10;1.90;;;24.70;73.70;;;;;;6178951;28;20812;-62
2023/08/17 09:55:57;;;;;;;2.58;1.75;;;24.80;73.80;;;;;;6175588;28;20706;-62
2023/08/17 09:58:59;;;;;;;2.70;1.92;;;24.70;73.70;;;;;;6180174;28;20042;-62
2023/08/17 10:02:04;;;;;;;2.65;1.98;;;25.10;74.10;;;;;;6177455;28;20034;-62
2023/08/17 10:05:10;;;;;;;2.85;2.25;;;24.60;74.10;;;;;;6174748;28;20041;-64
2023/08/17 10:08:12;;;;;;;2.10;1.77;;;24.90;74.00;;;;;;6174932;28;20678;-63
2023/08/17 10:11:19;;;;;;;2.17;1.85;;;24.90;73.90;;;;;;6173301;28;20088;-61
2023/08/17 10:14:26;;;;;;;2.22;2.00;;;25.00;74.20;;;;;;6146919;28;20046;-62
2023/08/17 10:17:39;;;;;;;3.22;1.95;;;25.10;74.80;;;;;;6171724;28;20038;-61
2023/08/17 10:20:45;;;;;;;3.13;2.42;;;24.90;74.30;;;;;;6162038;28;20042;-61
2023/08/17 10:23:47;;;;;;;2.50;1.92;;;25.10;74.50;;;;;;6162988;28;20041;-60
2023/08/17 10:26:50;;;;;;;2.58;1.92;;;25.00;75.20;;;;;;6172257;28;20250;-60
2023/08/17 10:29:58;;;;;;;2.03;1.83;;;25.10;74.50;;;;;;6167932;28;20041;-61
2023/08/17 10:33:00;;;;;;;2.30;1.80;;;24.70;74.30;;;;;;6183261;28;20061;-61
2023/08/17 10:36:02;;;;;;;3.05;2.13;;;25.20;74.60;;;;;;6175557;28;20437;-58
2023/08/17 10:39:17;;;;;;;3.15;2.38;;;25.00;75.00;;;;;;6170040;28;20057;-58
2023/08/17 10:42:31;;;;;;;2.53;2.20;;;25.10;74.70;;;;;;6173233;28;20104;-57
2023/08/17 10:45:35;;;;;;;2.78;2.00;;;25.20;75.30;;;;;;6166626;28;20042;-58
2023/08/17 10:48:43;;;;;;;2.40;2.00;;;25.00;74.70;;;;;;6175728;28;20064;-58
2023/08/17 10:52:02;;;;;;;2.92;2.22;;;25.00;74.90;;;;;;6162784;28;20049;-58
2023/08/17 10:55:06;;;;;;;3.65;2.03;;;25.20;75.00;;;;;;6170541;28;20508;-58
2023/08/17 10:58:08;;;;;;;2.08;1.90;;;25.30;75.10;;;;;;6171907;28;20038;-57
2023/08/17 11:01:33;;;;;;;3.50;2.38;;;25.30;75.90;;;;;;6176506;28;20045;-57
2023/08/17 11:04:39;;;;;;;1.92;1.70;;;25.30;75.10;;;;;;6174738;28;20468;-58
2023/08/17 11:07:42;;;;;;;2.00;1.77;;;25.40;75.20;;;;;;6171476;28;20452;-57
2023/08/17 11:10:48;;;;;;;2.55;2.15;;;25.30;74.90;;;;;;6179292;28;20050;-57
2023/08/17 11:13:53;;;;;;;3.60;2.20;;;25.20;74.90;;;;;;6176356;28;20113;-57
2023/08/17 11:17:00;;;;;;;3.47;2.17;;;25.50;75.00;;;;;;6155355;28;20045;-56
2023/08/17 11:20:10;;;;;;;2.38;2.17;;;25.30;74.80;;;;;;6140425;28;20042;-57
2023/08/17 11:23:18;;;;;;;2.95;2.22;;;25.20;75.40;;;;;;6140931;28;20050;-57
2023/08/17 11:26:20;;;;;;;2.17;1.90;;;25.50;74.80;;;;;;6136344;28;20092;-54
2023/08/17 11:29:23;;;;;;;2.35;2.00;;;24.40;74.00;;;;;;6135903;28;20129;-57
2023/08/17 11:32:27;;;;;;;1.75;1.63;;;25.50;74.90;;;;;;6130893;28;20042;-53
2023/08/17 11:35:29;;;;;;;1.63;1.42;;;25.50;74.30;;;;;;6128669;28;20039;-55
2023/08/17 11:38:32;;;;;;;1.60;1.40;;;25.50;73.70;;;;;;6132814;28;20035;-54
2023/08/17 11:41:36;;;;;;;1.85;1.23;;;25.50;74.20;;;;;;6130147;28;20165;-55
2023/08/17 11:44:38;;;;;;;2.33;1.70;;;25.30;73.20;;;;;;6155256;28;20089;-53
2023/08/17 11:47:40;;;;;;;1.48;1.38;;;25.50;73.40;;;;;;6135634;28;20045;-56
2023/08/17 11:50:44;;;;;;;1.50;1.40;;;25.60;74.20;;;;;;6145500;28;20456;-57
2023/08/17 11:53:48;;;;;;;2.55;1.48;;;25.60;73.30;;;;;;6116006;28;20046;-56
2023/08/17 11:56:51;;;;;;;2.13;1.92;;;25.60;75.10;;;;;;6126396;28;20050;-57
2023/08/17 11:59:56;;;;;;;2.20;2.00;;;25.40;75.30;;;;;;6132165;28;20042;-57
2023/08/17 12:02:58;;;;;;;2.55;2.00;;;25.60;75.40;;;;;;6140544;28;20102;-54
2023/08/17 12:06:00;;;;;;;2.10;1.90;;;25.60;75.60;;;;;;6140234;28;20030;-58
2023/08/17 12:09:05;;;;;;;2.78;2.40;;;25.30;75.10;;;;;;6128250;28;20042;-55
2023/08/17 12:12:07;;;;;;;1.90;1.70;;;25.60;75.20;;;;;;6132219;28;20043;-54
2023/08/17 12:15:10;;;;;;;1.88;1.67;;;26.70;75.60;;;;;;6145056;28;20399;-58
2023/08/17 12:18:12;;;;;;;2.35;1.70;;;26.90;75.80;;;;;;6154334;28;20022;-58
2023/08/17 12:21:16;;;;;;;2.17;1.60;;;25.80;74.70;;;;;;6185932;28;20043;-57
2023/08/17 12:24:19;;;;;;;1.88;1.48;;;25.80;75.20;;;;;;6137034;28;20034;-58
2023/08/17 12:27:22;;;;;;;2.03;1.80;;;26.00;74.40;;;;;;6161768;28;20482;-58
2023/08/17 12:30:26;;;;;;;2.38;1.63;;;25.90;74.10;;;;;;6159553;28;20041;-59
2023/08/17 12:33:28;;;;;;;3.08;1.55;;;26.10;74.10;;;;;;6167305;28;20066;-51
2023/08/17 12:36:31;;;;;;;2.20;1.70;;;26.10;73.90;;;;;;6179888;28;20581;-53
2023/08/17 12:39:34;;;;;;;1.50;1.40;;;26.10;73.70;;;;;;6158870;28;20701;-54
2023/08/17 12:42:35;;;;;;;2.75;1.88;;;26.10;73.50;;;;;;6146470;28;20034;-51
2023/08/17 12:45:39;;;;;;;2.83;1.70;;;26.10;73.20;;;;;;6148501;28;20516;-56
2023/08/17 12:48:41;;;;;;;2.63;1.88;;;25.90;72.70;;;;;;6129629;28;20511;-56
2023/08/17 12:51:43;;;;;;;2.95;1.60;;;25.80;73.10;;;;;;6160712;28;20072;-57
2023/08/17 12:54:47;;;;;;;4.43;1.90;;;26.30;73.10;;;;;;6166040;28;20031;-55
2023/08/17 12:57:54;;;;;;;4.40;1.63;;;26.60;72.60;;;;;;6190355;28;20038;-54
2023/08/17 13:00:55;;;;;;;1.70;1.60;;;26.30;72.50;;;;;;6166494;28;20720;-54
2023/08/17 13:07:32;;;;;;;1.50;1.40;;;24.40;68.30;;;;;;6153308;28;20043;-54
2023/08/17 13:13:57;;;;;;;3.50;1.45;;;26.20;69.20;;;;;;6631160;22;20101;-49
2023/08/17 13:16:59;;;;;;;1.70;1.17;;;26.40;71.60;;;;;;6188659;28;20034;-55
2023/08/17 13:20:01;;;;;;;1.20;1.05;;;26.60;72.00;;;;;;6147766;28;20116;-51
2023/08/17 13:23:04;;;;;;;1.52;1.20;;;26.40;71.30;;;;;;6151198;28;20042;-53
2023/08/17 13:26:05;;;;;;;1.40;1.20;;;26.50;71.10;;;;;;6165867;28;20049;-57
2023/08/17 13:29:07;;;;;;;1.45;1.23;;;25.40;70.30;;;;;;6149705;28;20299;-57
2023/08/17 13:32:11;;;;;;;1.55;1.10;;;26.20;71.80;;;;;;6107169;28;20038;-57
2023/08/17 13:35:14;;;;;;;1.70;1.10;;;26.00;71.00;;;;;;6150461;28;20042;-52
2023/08/17 13:38:16;;;;;;;1.63;1.20;;;26.40;71.50;;;;;;6151044;28;20046;-58
2023/08/17 13:41:18;;;;;;;1.20;1.00;;;26.20;71.10;;;;;;6155105;28;20236;-51
2023/08/17 13:44:20;;;;;;;2.13;1.20;;;26.00;71.10;;;;;;6160325;28;20170;-54
2023/08/17 13:47:21;;;;;;;1.85;1.40;;;26.20;71.20;;;;;;6139369;28;20100;-57
2023/08/17 13:50:23;;;;;;;1.95;1.40;;;25.80;71.10;;;;;;6142279;28;20042;-59
2023/08/17 13:53:25;;;;;;;2.17;1.38;;;25.90;71.00;;;;;;6144620;28;20064;-58
2023/08/17 13:56:27;;;;;;;2.88;1.40;;;26.30;72.10;;;;;;6146040;28;20039;-58
2023/08/17 13:59:30;;;;;;;2.50;1.52;;;26.20;71.10;;;;;;6152654;28;20038;-59
2023/08/17 14:02:32;;;;;;;1.80;1.20;;;26.40;71.10;;;;;;6147280;28;20053;-53
2023/08/17 14:05:34;;;;;;;2.15;1.55;;;26.40;70.50;;;;;;6153195;28;20068;-51
2023/08/17 14:08:36;;;;;;;2.63;1.67;;;26.40;70.70;;;;;;6154997;28;20041;-58
2023/08/17 14:11:38;;;;;;;2.47;1.60;;;26.30;70.50;;;;;;6147263;28;20129;-58
2023/08/17 14:14:43;;;;;;;2.70;1.42;;;26.40;70.70;;;;;;6129276;28;20058;-57
2023/08/17 14:17:44;;;;;;;2.30;1.42;;;26.50;70.50;;;;;;6163720;28;20437;-55
2023/08/17 14:20:46;;;;;;;3.95;1.40;;;26.50;70.40;;;;;;6174256;28;20089;-56
2023/08/17 14:23:49;;;;;;;1.92;1.48;;;26.40;70.20;;;;;;6169716;28;20217;-51
2023/08/17 14:26:50;;;;;;;2.20;1.40;;;26.50;70.00;;;;;;6140944;28;20785;-51
2023/08/17 14:29:52;;;;;;;1.67;1.58;;;26.20;70.00;;;;;;6137309;28;20050;-55
2023/08/17 14:32:53;;;;;;;2.53;1.52;;;26.70;70.80;;;;;;6126048;28;20691;-51
2023/08/17 14:36:01;;;;;;;1.55;1.10;;;26.40;70.10;;;;;;6132576;28;20064;-55
2023/08/17 14:39:05;;;;;;;1.83;1.50;;;26.30;69.60;;;;;;6135119;28;20113;-50
2023/08/17 14:42:06;;;;;;;1.60;1.30;;;26.30;69.50;;;;;;6136766;28;20045;-52
2023/08/17 14:45:09;;;;;;;2.40;1.60;;;26.40;69.80;;;;;;6102306;28;20047;-52
2023/08/17 14:48:12;;;;;;;1.75;1.27;;;26.40;69.60;;;;;;6120303;28;20043;-51
2023/08/17 14:51:17;;;;;;;1.55;1.20;;;26.30;69.80;;;;;;6130429;28;20120;-50
2023/08/17 14:54:19;;;;;;;1.92;1.27;;;26.20;69.40;;;;;;6131200;28;20030;-51
2023/08/17 14:57:20;;;;;;;2.13;1.30;;;26.30;70.00;;;;;;6134807;28;20042;-49
2023/08/17 15:00:24;;;;;;;2.38;1.30;;;26.10;69.50;;;;;;6144552;28;20521;-49
2023/08/17 15:03:25;;;;;;;1.85;1.08;;;26.30;69.60;;;;;;6086387;28;20054;-52
2023/08/17 15:06:27;;;;;;;1.88;1.20;;;26.20;69.20;;;;;;6140440;28;20038;-50
2023/08/17 15:09:37;;;;;;;2.33;1.27;;;26.10;69.80;;;;;;6132395;28;20039;-51
2023/08/17 15:12:41;;;;;;;1.38;1.27;;;26.10;70.00;;;;;;6154354;28;20041;-50
2023/08/17 15:15:43;;;;;;;1.20;0.98;;;26.20;70.10;;;;;;6142451;28;20038;-54
2023/08/17 15:18:44;;;;;;;1.60;1.05;;;26.20;70.60;;;;;;6110934;28;20113;-51
2023/08/17 15:21:48;;;;;;;1.20;1.10;;;26.20;70.60;;;;;;6115103;28;20891;-53
2023/08/17 15:24:53;;;;;;;2.25;1.30;;;26.20;68.00;;;;;;6147075;28;20851;-50
2023/08/17 15:27:55;;;;;;;2.92;1.60;;;26.00;70.90;;;;;;6138243;28;20042;-53
2023/08/17 15:31:01;;;;;;;1.58;0.95;;;26.20;71.10;;;;;;6121041;28;20046;-55
2023/08/17 15:34:04;;;;;;;1.38;1.27;;;26.00;70.50;;;;;;6114431;28;20279;-54
2023/08/17 15:37:06;;;;;;;1.70;1.25;;;26.10;71.00;;;;;;6119618;28;20089;-53
2023/08/17 15:40:11;;;;;;;2.00;1.35;;;26.10;70.50;;;;;;6125881;28;20240;-50
2023/08/17 15:43:13;;;;;;;3.40;1.35;;;25.80;70.20;;;;;;6142514;28;20284;-50
2023/08/17 15:46:14;;;;;;;1.90;1.38;;;26.00;70.60;;;;;;6147525;28;20073;-55
2023/08/17 15:49:16;;;;;;;1.70;1.30;;;26.10;71.10;;;;;;6123010;28;20362;-48
2023/08/17 15:52:21;;;;;;;1.35;0.98;;;26.10;70.60;;;;;;6142807;28;20035;-50
2023/08/17 15:55:24;;;;;;;1.73;1.40;;;26.00;70.50;;;;;;6150644;28;20050;-52
2023/08/17 15:58:28;;;;;;;1.00;0.85;;;25.90;70.50;;;;;;6149333;28;20038;-47
2023/08/17 16:01:34;;;;;;;1.90;1.20;;;25.70;70.00;;;;;;6145346;28;20120;-47